createdAt,value
2017-09-30T00:00:41.767Z,21.17
2017-09-30T00:03:10.707Z,18.77
2017-09-30T00:05:39.958Z,18.97
2017-09-30T00:08:08.473Z,21.37
2017-09-30T00:10:36.811Z,20.77
2017-09-30T00:13:05.128Z,22.20
2017-09-30T00:15:34.311Z,21.13
2017-09-30T00:18:02.735Z,21.30
2017-09-30T00:20:31.142Z,20.93
2017-09-30T00:22:59.554Z,20.13
2017-09-30T00:25:28.570Z,20.37
2017-09-30T00:27:58.691Z,20.37
2017-09-30T00:30:27.411Z,20.77
2017-09-30T00:32:55.896Z,22.33
2017-09-30T00:35:24.364Z,20.67
2017-09-30T00:37:52.742Z,21.43
2017-09-30T00:40:21.807Z,22.83
2017-09-30T00:42:50.239Z,21.23
2017-09-30T00:45:18.710Z,20.87
2017-09-30T00:47:47.195Z,23.73
2017-09-30T00:50:15.955Z,22.33
2017-09-30T00:52:44.343Z,20.73
2017-09-30T00:55:12.731Z,22.40
2017-09-30T00:57:41.124Z,22.83
2017-09-30T01:00:09.495Z,21.37
2017-09-30T01:02:37.820Z,22.90
2017-09-30T01:05:06.125Z,22.63
2017-09-30T01:07:34.431Z,21.80
2017-09-30T01:10:02.939Z,23.00
2017-09-30T01:12:31.854Z,22.40
2017-09-30T01:15:00.207Z,20.77
2017-09-30T01:17:28.539Z,21.80
2017-09-30T01:19:56.916Z,21.87
2017-09-30T01:22:25.363Z,21.97
2017-09-30T01:24:53.761Z,23.80
2017-09-30T01:27:22.206Z,22.00
2017-09-30T01:29:51.033Z,22.37
2017-09-30T01:32:19.466Z,21.90
2017-09-30T01:34:48.158Z,23.80
2017-09-30T01:37:16.709Z,23.37
2017-09-30T01:39:45.819Z,23.40
2017-09-30T01:42:14.181Z,22.30
2017-09-30T01:44:42.863Z,23.33
2017-09-30T01:47:11.405Z,21.67
2017-09-30T01:49:40.325Z,22.20
2017-09-30T01:52:09.186Z,24.00
2017-09-30T01:54:37.951Z,21.23
2017-09-30T01:57:06.765Z,22.47
2017-09-30T01:59:35.243Z,23.10
2017-09-30T02:02:03.758Z,21.03
2017-09-30T02:04:32.190Z,22.03
2017-09-30T02:07:00.582Z,22.30
2017-09-30T02:09:29.557Z,20.00
2017-09-30T02:11:57.976Z,22.87
2017-09-30T02:14:26.328Z,23.53
2017-09-30T02:16:54.819Z,23.70
2017-09-30T02:19:23.300Z,20.57
2017-09-30T02:21:51.965Z,20.67
2017-09-30T02:24:20.469Z,22.73
2017-09-30T02:26:48.760Z,21.53
2017-09-30T02:29:17.088Z,22.07
2017-09-30T02:31:45.627Z,21.83
2017-09-30T02:34:14.395Z,21.90
2017-09-30T02:36:42.878Z,22.87
2017-09-30T02:39:11.359Z,23.60
2017-09-30T02:41:39.712Z,23.60
2017-09-30T02:44:08.031Z,23.83
2017-09-30T02:46:36.410Z,22.03
2017-09-30T02:49:04.877Z,25.23
2017-09-30T02:51:33.206Z,23.03
2017-09-30T02:54:02.262Z,23.33
2017-09-30T02:56:31.379Z,25.80
2017-09-30T02:58:59.738Z,24.63
2017-09-30T03:01:28.071Z,25.20
2017-09-30T03:03:56.806Z,26.10
2017-09-30T03:06:25.132Z,25.40
2017-09-30T03:08:53.455Z,25.10
2017-09-30T03:11:21.786Z,25.97
2017-09-30T03:13:50.472Z,24.43
2017-09-30T03:16:19.855Z,24.20
2017-09-30T03:18:48.475Z,25.07
2017-09-30T03:21:16.831Z,23.83
2017-09-30T03:23:45.891Z,25.53
2017-09-30T03:26:14.212Z,24.80
2017-09-30T03:28:43.487Z,27.37
2017-09-30T03:31:12.753Z,26.30
2017-09-30T03:33:41.083Z,27.37
2017-09-30T03:36:10.158Z,26.13
2017-09-30T03:38:38.891Z,26.57
2017-09-30T03:41:07.192Z,26.47
2017-09-30T03:43:35.495Z,27.33
2017-09-30T03:46:03.834Z,26.90
2017-09-30T03:48:32.327Z,24.83
2017-09-30T03:51:00.632Z,26.33
2017-09-30T03:53:29.315Z,27.07
2017-09-30T03:55:57.774Z,25.80
2017-09-30T03:58:26.200Z,25.23
2017-09-30T04:00:54.707Z,26.87
2017-09-30T04:03:23.011Z,28.40
2017-09-30T04:05:51.332Z,27.20
2017-09-30T04:08:19.659Z,26.73
2017-09-30T04:10:47.966Z,26.77
2017-09-30T04:13:16.751Z,27.47
2017-09-30T04:15:45.414Z,25.53
2017-09-30T04:18:13.735Z,26.93
2017-09-30T04:20:42.426Z,27.10
2017-09-30T04:23:11.473Z,29.50
2017-09-30T04:25:39.791Z,27.03
2017-09-30T04:28:08.122Z,26.40
2017-09-30T04:30:36.495Z,26.20
2017-09-30T04:33:04.807Z,28.17
2017-09-30T04:35:33.130Z,30.73
2017-09-30T04:38:01.460Z,24.83
2017-09-30T04:40:29.958Z,29.27
2017-09-30T04:42:58.264Z,29.63
2017-09-30T04:45:27.494Z,25.83
2017-09-30T04:47:55.815Z,27.57
2017-09-30T04:50:24.135Z,31.00
2017-09-30T04:52:53.338Z,28.50
2017-09-30T04:55:21.655Z,28.30
2017-09-30T04:57:49.990Z,30.03
2017-09-30T05:00:19.218Z,28.57
2017-09-30T05:02:48.282Z,29.10
2017-09-30T05:05:17.338Z,26.87
2017-09-30T05:07:45.714Z,29.27
2017-09-30T05:10:14.082Z,31.20
2017-09-30T05:12:42.468Z,28.93
2017-09-30T05:15:10.847Z,29.80
2017-09-30T05:17:39.269Z,28.83
2017-09-30T05:20:07.630Z,25.43
2017-09-30T05:22:35.989Z,29.43
2017-09-30T05:25:04.363Z,30.13
2017-09-30T05:27:33.280Z,28.33
2017-09-30T05:30:02.356Z,28.73
2017-09-30T05:32:30.822Z,28.07
2017-09-30T05:34:59.175Z,28.90
2017-09-30T05:37:27.859Z,28.40
2017-09-30T05:39:56.253Z,29.57
2017-09-30T05:42:24.819Z,28.30
2017-09-30T05:44:53.270Z,27.80
2017-09-30T05:47:21.637Z,28.13
2017-09-30T05:49:50.084Z,27.80
2017-09-30T05:52:18.781Z,28.10
2017-09-30T05:54:47.139Z,29.23
2017-09-30T05:57:15.549Z,31.97
2017-09-30T05:59:44.197Z,31.53
2017-09-30T06:02:12.556Z,29.67
2017-09-30T06:04:41.056Z,29.10
2017-09-30T06:07:09.591Z,30.57
2017-09-30T06:09:38.050Z,29.47
2017-09-30T06:12:06.613Z,30.97
2017-09-30T06:14:35.348Z,30.00
2017-09-30T06:17:04.316Z,31.03
2017-09-30T06:19:33.232Z,30.93
2017-09-30T06:22:02.017Z,28.23
2017-09-30T06:24:30.651Z,32.00
2017-09-30T06:26:59.336Z,30.00
2017-09-30T06:29:27.769Z,32.20
2017-09-30T06:31:56.135Z,28.77
2017-09-30T06:34:24.527Z,30.50
2017-09-30T06:36:53.695Z,28.77
2017-09-30T06:39:22.381Z,30.10
2017-09-30T06:41:51.239Z,29.87
2017-09-30T06:44:19.669Z,28.00
2017-09-30T06:46:48.058Z,29.73
2017-09-30T06:49:16.385Z,29.93
2017-09-30T06:51:44.735Z,27.33
2017-09-30T06:54:14.035Z,32.13
2017-09-30T06:56:42.674Z,32.23
2017-09-30T06:59:11.059Z,28.67
2017-09-30T07:01:41.046Z,27.90
2017-09-30T07:04:09.469Z,32.13
2017-09-30T07:06:38.511Z,27.40
2017-09-30T07:09:07.817Z,32.10
2017-09-30T07:11:37.315Z,31.53
2017-09-30T07:14:05.688Z,30.13
2017-09-30T07:16:35.376Z,32.10
2017-09-30T07:19:03.707Z,29.70
2017-09-30T07:21:32.391Z,30.57
2017-09-30T07:24:00.717Z,30.33
2017-09-30T07:26:29.050Z,30.63
2017-09-30T07:28:57.682Z,29.20
2017-09-30T07:31:26.070Z,31.90
2017-09-30T07:33:55.206Z,29.23
2017-09-30T07:36:23.714Z,30.67
2017-09-30T07:38:52.024Z,30.10
2017-09-30T07:41:20.594Z,29.87
2017-09-30T07:43:48.973Z,29.27
2017-09-30T07:46:18.068Z,28.80
2017-09-30T07:48:47.114Z,29.27
2017-09-30T07:51:16.111Z,30.33
2017-09-30T07:53:44.840Z,31.33
2017-09-30T07:56:13.200Z,30.30
2017-09-30T07:58:41.660Z,30.53
2017-09-30T08:01:09.995Z,29.83
2017-09-30T08:03:38.363Z,28.47
2017-09-30T08:06:06.717Z,27.60
2017-09-30T08:08:35.208Z,32.17
2017-09-30T08:11:03.543Z,30.93
2017-09-30T08:13:32.167Z,28.07
2017-09-30T08:16:02.023Z,30.77
2017-09-30T08:18:30.563Z,30.30
2017-09-30T08:20:59.291Z,32.60
2017-09-30T08:23:28.959Z,29.93
2017-09-30T08:25:57.426Z,31.97
2017-09-30T08:28:25.840Z,28.30
2017-09-30T08:30:54.482Z,30.53
2017-09-30T08:33:22.864Z,30.87
2017-09-30T08:35:51.258Z,29.90
2017-09-30T08:38:19.576Z,28.60
2017-09-30T08:40:48.568Z,30.13
2017-09-30T08:43:16.923Z,28.83
2017-09-30T08:45:45.587Z,30.43
2017-09-30T08:48:13.922Z,29.57
2017-09-30T08:50:42.254Z,31.20
2017-09-30T08:53:10.819Z,30.47
2017-09-30T08:55:40.029Z,31.10
2017-09-30T08:58:08.371Z,31.73
2017-09-30T09:00:37.080Z,30.17
2017-09-30T09:03:05.472Z,28.90
2017-09-30T09:05:34.075Z,33.30
2017-09-30T09:08:03.274Z,31.40
2017-09-30T09:10:32.035Z,33.93
2017-09-30T09:13:00.720Z,30.77
2017-09-30T09:15:29.226Z,29.13
2017-09-30T09:17:58.016Z,30.53
2017-09-30T09:20:26.344Z,29.80
2017-09-30T09:22:54.684Z,29.37
2017-09-30T09:25:23.551Z,31.37
2017-09-30T09:27:51.892Z,33.43
2017-09-30T09:30:20.960Z,32.17
2017-09-30T09:32:49.308Z,29.90
2017-09-30T09:35:17.713Z,30.70
2017-09-30T09:37:46.187Z,27.50
2017-09-30T09:40:14.699Z,34.37
2017-09-30T09:42:44.186Z,30.67
2017-09-30T09:45:12.529Z,31.73
2017-09-30T09:47:40.852Z,31.00
2017-09-30T09:50:09.135Z,28.43
2017-09-30T09:52:37.441Z,30.70
2017-09-30T09:55:05.784Z,29.13
2017-09-30T09:57:34.098Z,30.30
2017-09-30T10:00:02.500Z,32.90
2017-09-30T10:02:30.875Z,30.73
2017-09-30T10:04:59.557Z,26.50
2017-09-30T10:07:28.520Z,29.73
2017-09-30T10:09:57.637Z,27.63
2017-09-30T10:12:26.044Z,25.40
2017-09-30T10:14:54.526Z,29.30
2017-09-30T10:17:22.843Z,25.40
2017-09-30T10:19:51.177Z,27.40
2017-09-30T10:22:19.743Z,27.43
2017-09-30T10:24:48.091Z,29.10
2017-09-30T10:27:17.143Z,28.70
2017-09-30T10:29:45.451Z,27.83
2017-09-30T10:32:14.135Z,29.57
2017-09-30T10:34:42.526Z,26.47
2017-09-30T10:37:10.879Z,26.73
2017-09-30T10:39:39.288Z,26.07
2017-09-30T10:42:07.620Z,26.50
2017-09-30T10:44:35.942Z,27.40
2017-09-30T10:47:04.987Z,29.80
2017-09-30T10:49:33.475Z,27.33
2017-09-30T10:52:02.383Z,27.50
2017-09-30T10:54:30.702Z,29.87
2017-09-30T10:56:59.778Z,28.27
2017-09-30T10:59:28.071Z,25.60
2017-09-30T11:01:57.251Z,27.03
2017-09-30T11:04:27.180Z,26.53
2017-09-30T11:06:55.506Z,25.27
2017-09-30T11:09:23.822Z,28.70
2017-09-30T11:11:52.147Z,28.83
2017-09-30T11:14:20.774Z,26.97
2017-09-30T11:16:49.079Z,28.50
2017-09-30T11:19:18.158Z,30.43
2017-09-30T11:21:46.443Z,28.13
2017-09-30T11:24:15.699Z,26.17
2017-09-30T11:26:44.023Z,29.97
2017-09-30T11:29:13.164Z,27.37
2017-09-30T11:31:41.430Z,27.83
2017-09-30T11:34:09.716Z,27.63
2017-09-30T11:36:38.000Z,27.67
2017-09-30T11:39:06.786Z,24.97
2017-09-30T11:41:35.041Z,27.20
2017-09-30T11:44:03.331Z,28.73
2017-09-30T11:46:31.619Z,28.90
2017-09-30T11:48:59.935Z,30.57
2017-09-30T11:51:28.352Z,29.07
2017-09-30T11:53:56.664Z,25.47
2017-09-30T11:56:24.977Z,27.80
2017-09-30T11:58:53.387Z,28.60
2017-09-30T12:01:21.679Z,26.60
2017-09-30T12:03:49.973Z,26.43
2017-09-30T12:06:18.864Z,27.60
2017-09-30T12:08:47.345Z,29.80
2017-09-30T12:11:15.627Z,27.97
2017-09-30T12:13:43.907Z,28.77
2017-09-30T12:16:12.408Z,28.30
2017-09-30T12:18:40.721Z,27.00
2017-09-30T12:21:09.933Z,24.73
2017-09-30T12:23:38.337Z,29.73
2017-09-30T12:26:06.671Z,27.83
2017-09-30T12:28:35.683Z,26.10
2017-09-30T12:31:04.399Z,26.37
2017-09-30T12:33:32.695Z,25.97
2017-09-30T12:36:01.003Z,24.23
2017-09-30T12:38:30.067Z,24.33
2017-09-30T12:40:58.394Z,28.53
2017-09-30T12:43:26.663Z,27.57
2017-09-30T12:45:55.790Z,26.67
2017-09-30T12:48:24.089Z,24.93
2017-09-30T12:50:52.375Z,24.43
2017-09-30T12:53:20.704Z,24.50
2017-09-30T12:55:49.190Z,23.50
2017-09-30T12:58:17.986Z,22.87
2017-09-30T13:00:46.335Z,25.53
2017-09-30T13:03:14.727Z,25.50
2017-09-30T13:05:43.834Z,29.57
2017-09-30T13:08:12.118Z,27.73
2017-09-30T13:10:40.436Z,24.80
2017-09-30T13:13:08.731Z,25.17
2017-09-30T13:15:37.050Z,25.23
2017-09-30T13:18:05.375Z,26.27
2017-09-30T13:20:33.835Z,24.87
2017-09-30T13:23:02.155Z,27.23
2017-09-30T13:25:31.830Z,26.00
2017-09-30T13:28:00.127Z,27.93
2017-09-30T13:30:29.191Z,23.33
2017-09-30T13:32:57.487Z,23.60
2017-09-30T13:35:25.772Z,27.77
2017-09-30T13:37:54.138Z,27.20
2017-09-30T13:40:22.462Z,23.80
2017-09-30T13:42:51.034Z,23.30
2017-09-30T13:45:20.251Z,22.70
2017-09-30T13:47:48.552Z,24.60
2017-09-30T13:50:16.839Z,22.87
2017-09-30T13:52:45.139Z,23.80
2017-09-30T13:55:13.474Z,26.53
2017-09-30T13:57:42.132Z,26.43
2017-09-30T14:00:11.186Z,26.40
2017-09-30T14:02:39.872Z,28.00
2017-09-30T14:05:08.179Z,25.03
2017-09-30T14:07:37.222Z,25.17
2017-09-30T14:10:05.515Z,25.03
2017-09-30T14:12:34.008Z,27.13
2017-09-30T14:15:02.299Z,24.77
2017-09-30T14:17:30.574Z,24.97
2017-09-30T14:19:59.009Z,26.40
2017-09-30T14:22:27.291Z,27.07
2017-09-30T14:24:55.583Z,28.13
2017-09-30T14:27:23.936Z,27.53
2017-09-30T14:29:52.710Z,28.57
2017-09-30T14:32:21.040Z,27.73
2017-09-30T14:34:49.318Z,25.50
2017-09-30T14:37:17.611Z,27.50
2017-09-30T14:39:45.923Z,26.47
2017-09-30T14:42:14.350Z,26.70
2017-09-30T14:44:42.659Z,25.60
2017-09-30T14:47:11.691Z,23.13
2017-09-30T14:49:39.998Z,27.90
2017-09-30T14:52:08.593Z,25.50
2017-09-30T14:54:36.926Z,24.20
2017-09-30T14:57:05.242Z,23.43
2017-09-30T14:59:33.539Z,23.37
2017-09-30T15:02:01.984Z,23.37
2017-09-30T15:04:30.274Z,23.33
2017-09-30T15:06:58.547Z,25.73
2017-09-30T15:09:26.873Z,23.10
2017-09-30T15:11:56.323Z,25.77
2017-09-30T15:14:24.655Z,25.60
2017-09-30T15:16:53.731Z,24.77
2017-09-30T15:19:22.089Z,25.60
2017-09-30T15:21:50.488Z,26.10
2017-09-30T15:24:18.840Z,25.33
2017-09-30T15:26:47.132Z,24.00
2017-09-30T15:29:15.509Z,27.43
2017-09-30T15:31:43.792Z,21.97
2017-09-30T15:34:12.068Z,25.77
2017-09-30T15:36:40.382Z,27.53
2017-09-30T15:39:09.876Z,25.50
2017-09-30T15:41:38.918Z,24.27
2017-09-30T15:44:07.186Z,26.17
2017-09-30T15:46:36.026Z,27.50
2017-09-30T15:49:05.290Z,30.93
2017-09-30T15:51:33.647Z,27.73
2017-09-30T15:54:01.927Z,31.00
2017-09-30T15:56:30.195Z,26.07
2017-09-30T15:58:58.487Z,26.00
2017-09-30T16:01:26.947Z,27.50
2017-09-30T16:03:55.773Z,28.13
2017-09-30T16:06:24.104Z,25.80
2017-09-30T16:08:52.402Z,27.23
2017-09-30T16:11:20.673Z,27.03
2017-09-30T16:13:49.387Z,28.83
2017-09-30T16:16:17.867Z,27.27
2017-09-30T16:18:46.165Z,27.43
2017-09-30T16:21:15.234Z,26.00
2017-09-30T16:23:43.698Z,29.33
2017-09-30T16:26:12.186Z,28.00
2017-09-30T16:28:40.895Z,29.40
2017-09-30T16:31:09.195Z,28.20
2017-09-30T16:33:38.234Z,26.27
2017-09-30T16:36:07.989Z,25.73
2017-09-30T16:38:36.267Z,30.03
2017-09-30T16:41:04.628Z,29.87
2017-09-30T16:43:32.943Z,32.37
2017-09-30T16:46:01.244Z,32.27
2017-09-30T16:48:29.551Z,31.40
2017-09-30T16:50:57.855Z,30.37
2017-09-30T16:53:26.329Z,28.10
2017-09-30T16:55:54.780Z,29.13
2017-09-30T16:58:23.085Z,30.60
2017-09-30T17:00:52.116Z,31.33
2017-09-30T17:03:21.411Z,32.07
2017-09-30T17:05:49.952Z,37.47
2017-09-30T17:08:18.427Z,32.17
2017-09-30T17:10:46.929Z,31.03
2017-09-30T17:13:15.233Z,29.60
2017-09-30T17:15:43.685Z,27.67
2017-09-30T17:18:12.008Z,28.00
2017-09-30T17:20:41.233Z,28.07
2017-09-30T17:23:09.518Z,27.10
2017-09-30T17:25:37.816Z,27.47
2017-09-30T17:28:06.107Z,27.37
2017-09-30T17:30:34.408Z,27.07
2017-09-30T17:33:03.635Z,28.03
2017-09-30T17:35:32.380Z,27.90
2017-09-30T17:38:00.811Z,28.33
2017-09-30T17:40:29.155Z,26.70
2017-09-30T17:42:58.385Z,26.77
2017-09-30T17:45:26.746Z,30.73
2017-09-30T17:47:55.795Z,29.90
2017-09-30T17:50:24.086Z,29.03
2017-09-30T17:52:52.675Z,26.10
2017-09-30T17:55:21.010Z,26.93
2017-09-30T17:57:49.314Z,27.70
2017-09-30T18:00:17.769Z,25.80
2017-09-30T18:02:46.266Z,25.53
2017-09-30T18:05:14.575Z,27.30
2017-09-30T18:07:43.257Z,29.20
2017-09-30T18:10:11.590Z,27.63
2017-09-30T18:12:40.118Z,28.23
2017-09-30T18:15:08.433Z,26.57
2017-09-30T18:17:36.769Z,26.23
2017-09-30T18:20:05.100Z,25.57
2017-09-30T18:22:33.418Z,29.50
2017-09-30T18:25:01.728Z,29.73
2017-09-30T18:27:30.619Z,29.27
2017-09-30T18:29:58.955Z,29.17
2017-09-30T18:32:27.431Z,27.20
2017-09-30T18:34:55.729Z,25.67
2017-09-30T18:37:24.005Z,28.13
2017-09-30T18:39:52.467Z,26.97
2017-09-30T18:42:20.766Z,27.87
2017-09-30T18:44:49.055Z,26.83
2017-09-30T18:47:17.363Z,25.70
2017-09-30T18:49:46.392Z,29.20
2017-09-30T18:52:15.079Z,27.10
2017-09-30T18:54:43.388Z,25.97
2017-09-30T18:57:11.691Z,25.47
2017-09-30T18:59:39.988Z,25.37
2017-09-30T19:02:08.293Z,27.20
2017-09-30T19:04:36.602Z,25.60
2017-09-30T19:07:04.889Z,25.33
2017-09-30T19:09:33.429Z,26.50
2017-09-30T19:12:01.767Z,24.93
2017-09-30T19:14:30.831Z,24.60
2017-09-30T19:16:59.515Z,25.00
2017-09-30T19:19:27.822Z,25.67
2017-09-30T19:21:57.066Z,24.10
2017-09-30T19:24:25.388Z,24.17
2017-09-30T19:26:54.545Z,22.77
2017-09-30T19:29:22.865Z,22.50
2017-09-30T19:31:51.146Z,22.77
2017-09-30T19:34:19.447Z,20.70
2017-09-30T19:36:48.371Z,23.10
2017-09-30T19:39:16.789Z,23.53
2017-09-30T19:41:45.266Z,24.33
2017-09-30T19:44:13.702Z,22.60
2017-09-30T19:46:42.315Z,23.30
2017-09-30T19:49:10.613Z,20.97
2017-09-30T19:51:39.006Z,22.70
2017-09-30T19:54:07.345Z,23.13
2017-09-30T19:56:35.793Z,24.10
2017-09-30T19:59:04.126Z,18.53
2017-09-30T20:01:33.724Z,8.63
2017-09-30T20:04:03.537Z,4.87
2017-09-30T20:06:31.863Z,3.93
2017-09-30T20:09:00.485Z,4.03
2017-09-30T20:11:28.967Z,4.53
2017-09-30T20:13:57.267Z,2.20
2017-09-30T20:16:26.567Z,2.53
2017-09-30T20:18:55.907Z,1.50
2017-09-30T20:21:24.694Z,3.10
2017-09-30T20:23:53.171Z,2.60
2017-09-30T20:26:21.463Z,1.73
2017-09-30T20:28:50.093Z,2.13
2017-09-30T20:31:18.433Z,2.57
2017-09-30T20:33:46.813Z,0.83
2017-09-30T20:36:15.124Z,2.33
2017-09-30T20:38:43.552Z,1.20
2017-09-30T20:41:12.102Z,1.07
2017-09-30T20:43:41.589Z,1.60
2017-09-30T20:46:09.917Z,2.30
2017-09-30T20:48:38.244Z,2.20
2017-09-30T20:51:06.676Z,3.30
2017-09-30T20:53:35.018Z,2.97
2017-09-30T20:56:03.553Z,1.20
2017-09-30T20:58:32.015Z,2.30
2017-09-30T21:01:00.386Z,1.43
2017-09-30T21:03:29.437Z,1.93
2017-09-30T21:05:57.739Z,1.27
2017-09-30T21:08:26.423Z,2.00
2017-09-30T21:10:54.747Z,4.70
2017-09-30T21:13:23.063Z,3.00
2017-09-30T21:15:51.404Z,2.83
2017-09-30T21:18:19.708Z,2.03
2017-09-30T21:20:48.279Z,2.10
2017-09-30T21:23:16.602Z,1.43
2017-09-30T21:25:44.971Z,3.07
2017-09-30T21:28:13.295Z,1.60
2017-09-30T21:30:41.600Z,1.30
2017-09-30T21:33:10.207Z,3.23
2017-09-30T21:35:38.599Z,3.50
2017-09-30T21:38:07.103Z,3.03
2017-09-30T21:40:35.415Z,3.30
2017-09-30T21:43:03.885Z,4.03
2017-09-30T21:45:32.455Z,2.20
2017-09-30T21:48:00.877Z,4.33
2017-09-30T21:50:29.243Z,3.53
2017-09-30T21:52:57.667Z,3.53
2017-09-30T21:55:26.411Z,4.43
2017-09-30T21:57:54.757Z,2.37
2017-09-30T22:00:23.548Z,2.80
2017-09-30T22:02:51.885Z,1.90
2017-09-30T22:05:20.247Z,3.10
2017-09-30T22:07:48.578Z,5.40
2017-09-30T22:10:16.931Z,3.30
2017-09-30T22:12:45.389Z,2.47
2017-09-30T22:15:14.228Z,2.03
2017-09-30T22:17:42.745Z,2.50
2017-09-30T22:20:11.171Z,1.77
2017-09-30T22:22:39.707Z,2.30
2017-09-30T22:25:08.228Z,4.30
2017-09-30T22:27:36.875Z,3.77
2017-09-30T22:30:05.355Z,2.83
2017-09-30T22:32:33.695Z,2.63
2017-09-30T22:35:03.222Z,1.70
2017-09-30T22:37:31.604Z,1.90
2017-09-30T22:39:59.958Z,3.97
2017-09-30T22:42:29.154Z,2.13
2017-09-30T22:44:57.493Z,2.67
2017-09-30T22:47:25.830Z,2.80
2017-09-30T22:49:54.154Z,4.23
2017-09-30T22:52:22.473Z,4.63
2017-09-30T22:54:51.403Z,2.27
2017-09-30T22:57:19.887Z,2.30
2017-09-30T22:59:48.464Z,4.73
2017-09-30T23:02:17.157Z,4.07
2017-09-30T23:04:45.499Z,4.60
2017-09-30T23:07:13.878Z,2.00
2017-09-30T23:09:42.462Z,1.97
2017-09-30T23:12:10.828Z,2.53
2017-09-30T23:14:39.923Z,3.53
2017-09-30T23:17:09.190Z,2.30
2017-09-30T23:19:38.068Z,2.30
2017-09-30T23:22:06.727Z,3.00
2017-09-30T23:24:35.499Z,2.87
2017-09-30T23:27:04.738Z,5.00
2017-09-30T23:29:33.068Z,2.67
2017-09-30T23:32:02.691Z,3.63
2017-09-30T23:34:31.023Z,2.70
2017-09-30T23:36:59.407Z,3.17
2017-09-30T23:39:28.543Z,3.30
2017-09-30T23:41:56.822Z,2.80
2017-09-30T23:44:25.150Z,4.30
2017-09-30T23:46:53.614Z,2.90
2017-09-30T23:49:22.118Z,3.30
2017-09-30T23:51:50.395Z,3.30
2017-09-30T23:54:18.795Z,4.30
2017-09-30T23:56:47.583Z,4.97
2017-09-30T23:59:16.657Z,4.80
